Aviation Digital Data Service (ADDS)

Output produced by METARs form (1339 UTC 24 August 2019)
found at http://www.aviationweather.gov/metar/data/
 
METAR text: RJTT 241300Z 18008KT 9999 FEW030 BKN170 28/23 Q1007 NOSIG RMK 1CU030 7AC170 A2976 MOD TURB OBS AT 1230Z AROUND DAIGO BTN FL150 AND 12000FT IN DES BY B763
Conditions at: RJTT (TOKYO INTL AIRPO, JP) observed 1300 UTC 24 August 2019
Temperature: 28.0°C (82°F)
Dewpoint: 23.0°C (73°F) [RH = 74%]
Pressure (altimeter): 29.73 inches Hg (1007.0 mb)
Winds: from the S (180 degrees) at 9 MPH (8 knots; 4.1 m/s)
Visibility: 6 or more miles (10+ km)
Ceiling: 17000 feet AGL
Clouds: few clouds at 3000 feet AGL
broken clouds at 17000 feet AGL
Weather: no significant weather observed at this time

METAR text: RJTT 241230Z 19009KT 9999 FEW030 BKN170 28/23 Q1007 NOSIG RMK 1CU030 7AC170 A2976
Conditions at: RJTT (TOKYO INTL AIRPO, JP) observed 1230 UTC 24 August 2019
Temperature: 28.0°C (82°F)
Dewpoint: 23.0°C (73°F) [RH = 74%]
Pressure (altimeter): 29.73 inches Hg (1007.0 mb)
Winds: from the S (190 degrees) at 10 MPH (9 knots; 4.6 m/s)
Visibility: 6 or more miles (10+ km)
Ceiling: 17000 feet AGL
Clouds: few clouds at 3000 feet AGL
broken clouds at 17000 feet AGL
Weather: no significant weather observed at this time

METAR text: RJTT 241200Z 18008KT 9999 FEW030 BKN200 28/23 Q1007 NOSIG RMK 1CU030 7AC200 A2976
Conditions at: RJTT (TOKYO INTL AIRPO, JP) observed 1200 UTC 24 August 2019
Temperature: 28.0°C (82°F)
Dewpoint: 23.0°C (73°F) [RH = 74%]
Pressure (altimeter): 29.73 inches Hg (1007.0 mb)
Winds: from the S (180 degrees) at 9 MPH (8 knots; 4.1 m/s)
Visibility: 6 or more miles (10+ km)
Ceiling: 20000 feet AGL
Clouds: few clouds at 3000 feet AGL
broken clouds at 20000 feet AGL
Weather: no significant weather observed at this time

METAR text: RJTT 241130Z 19010KT 9999 FEW030 BKN200 28/23 Q1008 NOSIG RMK 1CU030 7AC200 A2977
Conditions at: RJTT (TOKYO INTL AIRPO, JP) observed 1130 UTC 24 August 2019
Temperature: 28.0°C (82°F)
Dewpoint: 23.0°C (73°F) [RH = 74%]
Pressure (altimeter): 29.76 inches Hg (1008.0 mb)
Winds: from the S (190 degrees) at 12 MPH (10 knots; 5.1 m/s)
Visibility: 6 or more miles (10+ km)
Ceiling: 20000 feet AGL
Clouds: few clouds at 3000 feet AGL
broken clouds at 20000 feet AGL
Weather: no significant weather observed at this time

METAR text: RJTT 241100Z 19010KT 9999 FEW030 SCT180 BKN/// 28/23 Q1008 NOSIG
Conditions at: RJTT (TOKYO INTL AIRPO, JP) observed 1100 UTC 24 August 2019
Temperature: 28.0°C (82°F)
Dewpoint: 23.0°C (73°F) [RH = 74%]
Pressure (altimeter): 29.76 inches Hg (1008.0 mb)
Winds: from the S (190 degrees) at 12 MPH (10 knots; 5.1 m/s)
Visibility: 6 or more miles (10+ km)
Ceiling: at least 12,000 feet AGL
Clouds: few clouds at 3000 feet AGL
scattered clouds at 18000 feet AGL
Weather: no significant weather observed at this time

METAR text: RJTT 241030Z 18010KT 9999 FEW030 BKN/// 29/23 Q1007 NOSIG RMK 1CU030 A2976
Conditions at: RJTT (TOKYO INTL AIRPO, JP) observed 1030 UTC 24 August 2019
Temperature: 29.0°C (84°F)
Dewpoint: 23.0°C (73°F) [RH = 70%]
Pressure (altimeter): 29.73 inches Hg (1007.0 mb)
Winds: from the S (180 degrees) at 12 MPH (10 knots; 5.1 m/s)
Visibility: 6 or more miles (10+ km)
Ceiling: at least 12,000 feet AGL
Clouds: few clouds at 3000 feet AGL
Weather: no significant weather observed at this time

METAR text: RJTT 241000Z 19010KT 9999 FEW030 BKN/// 29/22 Q1007 NOSIG RMK 1CU030 A2975
Conditions at: RJTT (TOKYO INTL AIRPO, JP) observed 1000 UTC 24 August 2019
Temperature: 29.0°C (84°F)
Dewpoint: 22.0°C (72°F) [RH = 66%]
Pressure (altimeter): 29.73 inches Hg (1007.0 mb)
Winds: from the S (190 degrees) at 12 MPH (10 knots; 5.1 m/s)
Visibility: 6 or more miles (10+ km)
Ceiling: at least 12,000 feet AGL
Clouds: few clouds at 3000 feet AGL
Weather: no significant weather observed at this time

METAR text: RJTT 240930Z 19011KT 9999 FEW025 BKN/// 29/23 Q1007 NOSIG RMK 1CU025 A2974
Conditions at: RJTT (TOKYO INTL AIRPO, JP) observed 0930 UTC 24 August 2019
Temperature: 29.0°C (84°F)
Dewpoint: 23.0°C (73°F) [RH = 70%]
Pressure (altimeter): 29.73 inches Hg (1007.0 mb)
Winds: from the S (190 degrees) at 13 MPH (11 knots; 5.7 m/s)
Visibility: 6 or more miles (10+ km)
Ceiling: at least 12,000 feet AGL
Clouds: few clouds at 2500 feet AGL
Weather: no significant weather observed at this time

METAR text: RJTT 240900Z 20012KT 9999 FEW025 BKN/// 29/23 Q1007 NOSIG RMK 1CU025 A2974
Conditions at: RJTT (TOKYO INTL AIRPO, JP) observed 0900 UTC 24 August 2019
Temperature: 29.0°C (84°F)
Dewpoint: 23.0°C (73°F) [RH = 70%]
Pressure (altimeter): 29.73 inches Hg (1007.0 mb)
Winds: from the SSW (200 degrees) at 14 MPH (12 knots; 6.2 m/s)
Visibility: 6 or more miles (10+ km)
Ceiling: at least 12,000 feet AGL
Clouds: few clouds at 2500 feet AGL
Weather: no significant weather observed at this time

METAR text: RJTT 240830Z 19014KT 9999 FEW025 BKN/// 29/22 Q1006 NOSIG RMK 1CU025 A2973
Conditions at: RJTT (TOKYO INTL AIRPO, JP) observed 0830 UTC 24 August 2019
Temperature: 29.0°C (84°F)
Dewpoint: 22.0°C (72°F) [RH = 66%]
Pressure (altimeter): 29.70 inches Hg (1006.0 mb)
Winds: from the S (190 degrees) at 16 MPH (14 knots; 7.2 m/s)
Visibility: 6 or more miles (10+ km)
Ceiling: at least 12,000 feet AGL
Clouds: few clouds at 2500 feet AGL
Weather: no significant weather observed at this time

METAR text: RJTT 240800Z 19015KT 9999 FEW025 BKN/// 29/22 Q1007 NOSIG RMK 1CU025 A2974
Conditions at: RJTT (TOKYO INTL AIRPO, JP) observed 0800 UTC 24 August 2019
Temperature: 29.0°C (84°F)
Dewpoint: 22.0°C (72°F) [RH = 66%]
Pressure (altimeter): 29.73 inches Hg (1007.0 mb)
Winds: from the S (190 degrees) at 17 MPH (15 knots; 7.7 m/s)
Visibility: 6 or more miles (10+ km)
Ceiling: at least 12,000 feet AGL
Clouds: few clouds at 2500 feet AGL
Weather: no significant weather observed at this time

METAR text: RJTT 240730Z 19013KT 9999 FEW025 BKN/// 30/21 Q1007 NOSIG RMK 1CU025 A2974
Conditions at: RJTT (TOKYO INTL AIRPO, JP) observed 0730 UTC 24 August 2019
Temperature: 30.0°C (86°F)
Dewpoint: 21.0°C (70°F) [RH = 59%]
Pressure (altimeter): 29.73 inches Hg (1007.0 mb)
Winds: from the S (190 degrees) at 15 MPH (13 knots; 6.7 m/s)
Visibility: 6 or more miles (10+ km)
Ceiling: at least 12,000 feet AGL
Clouds: few clouds at 2500 feet AGL
Weather: no significant weather observed at this time

METAR text: RJTT 240700Z 19016KT 9999 FEW025 SCT/// 30/22 Q1006 NOSIG RMK 1CU025 A2973
Conditions at: RJTT (TOKYO INTL AIRPO, JP) observed 0700 UTC 24 August 2019
Temperature: 30.0°C (86°F)
Dewpoint: 22.0°C (72°F) [RH = 62%]
Pressure (altimeter): 29.70 inches Hg (1006.0 mb)
Winds: from the S (190 degrees) at 18 MPH (16 knots; 8.2 m/s)
Visibility: 6 or more miles (10+ km)
Ceiling: at least 12,000 feet AGL
Clouds: few clouds at 2500 feet AGL
Weather: no significant weather observed at this time

METAR text: RJTT 240630Z 19016KT 9999 FEW025 30/22 Q1006 NOSIG RMK 1CU025 A2973
Conditions at: RJTT (TOKYO INTL AIRPO, JP) observed 0630 UTC 24 August 2019
Temperature: 30.0°C (86°F)
Dewpoint: 22.0°C (72°F) [RH = 62%]
Pressure (altimeter): 29.70 inches Hg (1006.0 mb)
Winds: from the S (190 degrees) at 18 MPH (16 knots; 8.2 m/s)
Visibility: 6 or more miles (10+ km)
Ceiling: at least 12,000 feet AGL
Clouds: few clouds at 2500 feet AGL
Weather: no significant weather observed at this time

METAR text: RJTT 240600Z 19017KT 9999 FEW025 31/22 Q1006 NOSIG RMK 1CU025 A2972
Conditions at: RJTT (TOKYO INTL AIRPO, JP) observed 0600 UTC 24 August 2019
Temperature: 31.0°C (88°F)
Dewpoint: 22.0°C (72°F) [RH = 59%]
Pressure (altimeter): 29.70 inches Hg (1006.0 mb)
Winds: from the S (190 degrees) at 20 MPH (17 knots; 8.7 m/s)
Visibility: 6 or more miles (10+ km)
Ceiling: at least 12,000 feet AGL
Clouds: few clouds at 2500 feet AGL
Weather: no significant weather observed at this time

METAR text: RJTT 240530Z 18015KT 9999 FEW025 30/22 Q1006 NOSIG RMK 1CU025 A2972
Conditions at: RJTT (TOKYO INTL AIRPO, JP) observed 0530 UTC 24 August 2019
Temperature: 30.0°C (86°F)
Dewpoint: 22.0°C (72°F) [RH = 62%]
Pressure (altimeter): 29.70 inches Hg (1006.0 mb)
Winds: from the S (180 degrees) at 17 MPH (15 knots; 7.7 m/s)
Visibility: 6 or more miles (10+ km)
Ceiling: at least 12,000 feet AGL
Clouds: few clouds at 2500 feet AGL
Weather: no significant weather observed at this time

METAR text: RJTT 240500Z 18015KT 9999 FEW025 30/22 Q1006 NOSIG RMK 1CU025 A2972
Conditions at: RJTT (TOKYO INTL AIRPO, JP) observed 0500 UTC 24 August 2019
Temperature: 30.0°C (86°F)
Dewpoint: 22.0°C (72°F) [RH = 62%]
Pressure (altimeter): 29.70 inches Hg (1006.0 mb)
Winds: from the S (180 degrees) at 17 MPH (15 knots; 7.7 m/s)
Visibility: 6 or more miles (10+ km)
Ceiling: at least 12,000 feet AGL
Clouds: few clouds at 2500 feet AGL
Weather: no significant weather observed at this time

METAR text: RJTT 240430Z 19016KT 9999 FEW025 SCT/// 30/21 Q1006 NOSIG RMK 1CU025 A2973
Conditions at: RJTT (TOKYO INTL AIRPO, JP) observed 0430 UTC 24 August 2019
Temperature: 30.0°C (86°F)
Dewpoint: 21.0°C (70°F) [RH = 59%]
Pressure (altimeter): 29.70 inches Hg (1006.0 mb)
Winds: from the S (190 degrees) at 18 MPH (16 knots; 8.2 m/s)
Visibility: 6 or more miles (10+ km)
Ceiling: at least 12,000 feet AGL
Clouds: few clouds at 2500 feet AGL
Weather: no significant weather observed at this time

METAR text: RJTT 240400Z 19015KT 9999 FEW020 BKN/// 30/21 Q1007 NOSIG RMK 1CU020 A2974
Conditions at: RJTT (TOKYO INTL AIRPO, JP) observed 0400 UTC 24 August 2019
Temperature: 30.0°C (86°F)
Dewpoint: 21.0°C (70°F) [RH = 59%]
Pressure (altimeter): 29.73 inches Hg (1007.0 mb)
Winds: from the S (190 degrees) at 17 MPH (15 knots; 7.7 m/s)
Visibility: 6 or more miles (10+ km)
Ceiling: at least 12,000 feet AGL
Clouds: few clouds at 2000 feet AGL
Weather: no significant weather observed at this time

METAR text: RJTT 240330Z 19012KT 9999 FEW020 BKN/// 30/23 Q1007 NOSIG RMK 1CU020 A2974
Conditions at: RJTT (TOKYO INTL AIRPO, JP) observed 0330 UTC 24 August 2019
Temperature: 30.0°C (86°F)
Dewpoint: 23.0°C (73°F) [RH = 66%]
Pressure (altimeter): 29.73 inches Hg (1007.0 mb)
Winds: from the S (190 degrees) at 14 MPH (12 knots; 6.2 m/s)
Visibility: 6 or more miles (10+ km)
Ceiling: at least 12,000 feet AGL
Clouds: few clouds at 2000 feet AGL
Weather: no significant weather observed at this time

METAR text: RJTT 240300Z 17011KT 9999 FEW020 BKN/// 29/22 Q1007 NOSIG RMK 1CU020 A2975
Conditions at: RJTT (TOKYO INTL AIRPO, JP) observed 0300 UTC 24 August 2019
Temperature: 29.0°C (84°F)
Dewpoint: 22.0°C (72°F) [RH = 66%]
Pressure (altimeter): 29.73 inches Hg (1007.0 mb)
Winds: from the S (170 degrees) at 13 MPH (11 knots; 5.7 m/s)
Visibility: 6 or more miles (10+ km)
Ceiling: at least 12,000 feet AGL
Clouds: few clouds at 2000 feet AGL
Weather: no significant weather observed at this time

METAR text: RJTT 240230Z 17011KT 9999 FEW020 BKN/// 29/23 Q1007 NOSIG
Conditions at: RJTT (TOKYO INTL AIRPO, JP) observed 0230 UTC 24 August 2019
Temperature: 29.0°C (84°F)
Dewpoint: 23.0°C (73°F) [RH = 70%]
Pressure (altimeter): 29.73 inches Hg (1007.0 mb)
Winds: from the S (170 degrees) at 13 MPH (11 knots; 5.7 m/s)
Visibility: 6 or more miles (10+ km)
Ceiling: at least 12,000 feet AGL
Clouds: few clouds at 2000 feet AGL
Weather: no significant weather observed at this time

METAR text: RJTT 240200Z 18010KT 9999 FEW015 SCT030 BKN/// 29/24 Q1007 NOSIG
Conditions at: RJTT (TOKYO INTL AIRPO, JP) observed 0200 UTC 24 August 2019
Temperature: 29.0°C (84°F)
Dewpoint: 24.0°C (75°F) [RH = 74%]
Pressure (altimeter): 29.73 inches Hg (1007.0 mb)
Winds: from the S (180 degrees) at 12 MPH (10 knots; 5.1 m/s)
Visibility: 6 or more miles (10+ km)
Ceiling: at least 12,000 feet AGL
Clouds: few clouds at 1500 feet AGL
scattered clouds at 3000 feet AGL
Weather: no significant weather observed at this time

METAR text: RJTT 240130Z 14008KT 9999 FEW015 SCT020 BKN030 28/24 Q1008 NOSIG RMK 1CU015 3CU020 5CU030 A2977
Conditions at: RJTT (TOKYO INTL AIRPO, JP) observed 0130 UTC 24 August 2019
Temperature: 28.0°C (82°F)
Dewpoint: 24.0°C (75°F) [RH = 79%]
Pressure (altimeter): 29.76 inches Hg (1008.0 mb)
Winds: from the SE (140 degrees) at 9 MPH (8 knots; 4.1 m/s)
Visibility: 6 or more miles (10+ km)
Ceiling: 3000 feet AGL
Clouds: few clouds at 1500 feet AGL
scattered clouds at 2000 feet AGL
broken clouds at 3000 feet AGL
Weather: no significant weather observed at this time

METAR text: RJTT 240100Z 14005KT 100V220 9999 FEW015 BKN020 BKN/// 28/25 Q1008 NOSIG RMK 2CU015 5CU020 A2977
Conditions at: RJTT (TOKYO INTL AIRPO, JP) observed 0100 UTC 24 August 2019
Temperature: 28.0°C (82°F)
Dewpoint: 25.0°C (77°F) [RH = 84%]
Pressure (altimeter): 29.76 inches Hg (1008.0 mb)
Winds: from the SE (140 degrees) at 6 MPH (5 knots; 2.6 m/s)
Visibility: 6 or more miles (10+ km)
Ceiling: 2000 feet AGL
Clouds: few clouds at 1500 feet AGL
broken clouds at 2000 feet AGL
Weather: no significant weather observed at this time

METAR text: RJTT 240030Z 07004KT 9999 FEW015 SCT020 BKN/// 28/25 Q1008 BECMG 14010KT RMK 1CU015 4CU020 A2977
Conditions at: RJTT (TOKYO INTL AIRPO, JP) observed 0030 UTC 24 August 2019
Temperature: 28.0°C (82°F)
Dewpoint: 25.0°C (77°F) [RH = 84%]
Pressure (altimeter): 29.76 inches Hg (1008.0 mb)
Winds: from the ENE (70 degrees) at 5 MPH (4 knots; 2.1 m/s)
Visibility: 6 or more miles (10+ km)
Ceiling: at least 12,000 feet AGL
Clouds: few clouds at 1500 feet AGL
scattered clouds at 2000 feet AGL
Weather: no significant weather observed at this time

METAR text: RJTT 240000Z 05004KT 9999 FEW012 SCT017 BKN/// 27/24 Q1008 BECMG 08006KT RMK 1CU012 3CU017 A2977
Conditions at: RJTT (TOKYO INTL AIRPO, JP) observed 0000 UTC 24 August 2019
Temperature: 27.0°C (81°F)
Dewpoint: 24.0°C (75°F) [RH = 84%]
Pressure (altimeter): 29.76 inches Hg (1008.0 mb)
Winds: from the NE (50 degrees) at 5 MPH (4 knots; 2.1 m/s)
Visibility: 6 or more miles (10+ km)
Ceiling: at least 12,000 feet AGL
Clouds: few clouds at 1200 feet AGL
scattered clouds at 1700 feet AGL
Weather: no significant weather observed at this time

METAR text: RJTT 232330Z 03003KT 9999 FEW015 BKN020 BKN/// 28/24 Q1008 BECMG 19008KT
Conditions at: RJTT (TOKYO INTL AIRPO, JP) observed 2330 UTC 23 August 2019
Temperature: 28.0°C (82°F)
Dewpoint: 24.0°C (75°F) [RH = 79%]
Pressure (altimeter): 29.76 inches Hg (1008.0 mb)
Winds: from the NNE (30 degrees) at 3 MPH (3 knots; 1.5 m/s)
Visibility: 6 or more miles (10+ km)
Ceiling: 2000 feet AGL
Clouds: few clouds at 1500 feet AGL
broken clouds at 2000 feet AGL
Weather: no significant weather observed at this time

METAR text: RJTT 232300Z 36004KT 9999 FEW015 BKN018 BKN/// 27/24 Q1008 NOSIG RMK 1CU015 5SC018 A2977
Conditions at: RJTT (TOKYO INTL AIRPO, JP) observed 2300 UTC 23 August 2019
Temperature: 27.0°C (81°F)
Dewpoint: 24.0°C (75°F) [RH = 84%]
Pressure (altimeter): 29.76 inches Hg (1008.0 mb)
Winds: from the N (360 degrees) at 5 MPH (4 knots; 2.1 m/s)
Visibility: 6 or more miles (10+ km)
Ceiling: 1800 feet AGL
Clouds: few clouds at 1500 feet AGL
broken clouds at 1800 feet AGL
Weather: no significant weather observed at this time

METAR text: RJTT 232230Z 30006KT 260V330 9999 VCSH FEW010 BKN013 BKN018 27/24 Q1008 BECMG FEW010 SCT020 RMK 1CU010 5SC013 7SC018 A2977
Conditions at: RJTT (TOKYO INTL AIRPO, JP) observed 2230 UTC 23 August 2019
Temperature: 27.0°C (81°F)
Dewpoint: 24.0°C (75°F) [RH = 84%]
Pressure (altimeter): 29.76 inches Hg (1008.0 mb)
Winds: from the WNW (300 degrees) at 7 MPH (6 knots; 3.1 m/s)
Visibility: 6 or more miles (10+ km)
Ceiling: 1300 feet AGL
Clouds: few clouds at 1000 feet AGL
broken clouds at 1300 feet AGL
broken clouds at 1800 feet AGL
Weather: VCSH  (showers in vicinity)

METAR text: RJTT 232200Z 31005KT 9999 -RA FEW010 BKN013 26/23 Q1008 BECMG FEW010 SCT013 RMK 1CU010 7SC013 A2977
Conditions at: RJTT (TOKYO INTL AIRPO, JP) observed 2200 UTC 23 August 2019
Temperature: 26.0°C (79°F)
Dewpoint: 23.0°C (73°F) [RH = 84%]
Pressure (altimeter): 29.76 inches Hg (1008.0 mb)
Winds: from the NW (310 degrees) at 6 MPH (5 knots; 2.6 m/s)
Visibility: 6 or more miles (10+ km)
Ceiling: 1300 feet AGL
Clouds: few clouds at 1000 feet AGL
broken clouds at 1300 feet AGL
Weather: -RA  (light rain)

METAR text: RJTT 232130Z 29003KT 9999 VCSH FEW010 SCT014 BKN200 26/23 Q1007 NOSIG RMK 1CU010 4CU014 7AC200 A2976
Conditions at: RJTT (TOKYO INTL AIRPO, JP) observed 2130 UTC 23 August 2019
Temperature: 26.0°C (79°F)
Dewpoint: 23.0°C (73°F) [RH = 84%]
Pressure (altimeter): 29.73 inches Hg (1007.0 mb)
Winds: from the WNW (290 degrees) at 3 MPH (3 knots; 1.5 m/s)
Visibility: 6 or more miles (10+ km)
Ceiling: 20000 feet AGL
Clouds: few clouds at 1000 feet AGL
scattered clouds at 1400 feet AGL
broken clouds at 20000 feet AGL
Weather: VCSH  (showers in vicinity)

METAR text: RJTT 232100Z 27005KT 9999 FEW015 BKN110 26/23 Q1007 NOSIG RMK 1CU015 7AC110 A2975
Conditions at: RJTT (TOKYO INTL AIRPO, JP) observed 2100 UTC 23 August 2019
Temperature: 26.0°C (79°F)
Dewpoint: 23.0°C (73°F) [RH = 84%]
Pressure (altimeter): 29.73 inches Hg (1007.0 mb)
Winds: from the W (270 degrees) at 6 MPH (5 knots; 2.6 m/s)
Visibility: 6 or more miles (10+ km)
Ceiling: 11000 feet AGL
Clouds: few clouds at 1500 feet AGL
broken clouds at 11000 feet AGL
Weather: no significant weather observed at this time

METAR text: RJTT 232030Z 31006KT 9999 -SHRA FEW015 SCT130 BKN150 25/23 Q1007 NOSIG RMK 1CU015 3AC130 7AC150 A2974
Conditions at: RJTT (TOKYO INTL AIRPO, JP) observed 2030 UTC 23 August 2019
Temperature: 25.0°C (77°F)
Dewpoint: 23.0°C (73°F) [RH = 89%]
Pressure (altimeter): 29.73 inches Hg (1007.0 mb)
Winds: from the NW (310 degrees) at 7 MPH (6 knots; 3.1 m/s)
Visibility: 6 or more miles (10+ km)
Ceiling: 15000 feet AGL
Clouds: few clouds at 1500 feet AGL
scattered clouds at 13000 feet AGL
broken clouds at 15000 feet AGL
Weather: -SHRA  (light rain showers)

METAR text: RJTT 232000Z 28007KT 9999 -SHRA FEW015 SCT130 BKN150 25/23 Q1007 NOSIG RMK 1CU015 3AC130 7AC150 A2975
Conditions at: RJTT (TOKYO INTL AIRPO, JP) observed 2000 UTC 23 August 2019
Temperature: 25.0°C (77°F)
Dewpoint: 23.0°C (73°F) [RH = 89%]
Pressure (altimeter): 29.73 inches Hg (1007.0 mb)
Winds: from the W (280 degrees) at 8 MPH (7 knots; 3.6 m/s)
Visibility: 6 or more miles (10+ km)
Ceiling: 15000 feet AGL
Clouds: few clouds at 1500 feet AGL
scattered clouds at 13000 feet AGL
broken clouds at 15000 feet AGL
Weather: -SHRA  (light rain showers)

METAR text: RJTT 231930Z 29005KT 9999 -SHRA FEW015 BKN130 BKN150 26/23 Q1006 NOSIG RMK 1CU015 5AC130 7AC150 A2973
Conditions at: RJTT (TOKYO INTL AIRPO, JP) observed 1930 UTC 23 August 2019
Temperature: 26.0°C (79°F)
Dewpoint: 23.0°C (73°F) [RH = 84%]
Pressure (altimeter): 29.70 inches Hg (1006.0 mb)
Winds: from the WNW (290 degrees) at 6 MPH (5 knots; 2.6 m/s)
Visibility: 6 or more miles (10+ km)
Ceiling: 13000 feet AGL
Clouds: few clouds at 1500 feet AGL
broken clouds at 13000 feet AGL
broken clouds at 15000 feet AGL
Weather: -SHRA  (light rain showers)

METAR text: RJTT 231900Z 28006KT 9999 FEW015 BKN150 26/23 Q1006 NOSIG RMK 1CU015 7AC150 A2973
Conditions at: RJTT (TOKYO INTL AIRPO, JP) observed 1900 UTC 23 August 2019
Temperature: 26.0°C (79°F)
Dewpoint: 23.0°C (73°F) [RH = 84%]
Pressure (altimeter): 29.70 inches Hg (1006.0 mb)
Winds: from the W (280 degrees) at 7 MPH (6 knots; 3.1 m/s)
Visibility: 6 or more miles (10+ km)
Ceiling: 15000 feet AGL
Clouds: few clouds at 1500 feet AGL
broken clouds at 15000 feet AGL
Weather: no significant weather observed at this time

METAR text: RJTT 231830Z 28006KT 9999 -RA FEW030 OVC150 26/24 Q1006 NOSIG RMK 1CU030 8AS150 A2973
Conditions at: RJTT (TOKYO INTL AIRPO, JP) observed 1830 UTC 23 August 2019
Temperature: 26.0°C (79°F)
Dewpoint: 24.0°C (75°F) [RH = 89%]
Pressure (altimeter): 29.70 inches Hg (1006.0 mb)
Winds: from the W (280 degrees) at 7 MPH (6 knots; 3.1 m/s)
Visibility: 6 or more miles (10+ km)
Ceiling: 15000 feet AGL
Clouds: few clouds at 3000 feet AGL
overcast cloud deck at 15000 feet AGL
Weather: -RA  (light rain)

METAR text: RJTT 231800Z 30006KT 9999 -SHRA FEW025 BKN150 26/23 Q1006 NOSIG RMK 1CU025 7AC150 A2972
Conditions at: RJTT (TOKYO INTL AIRPO, JP) observed 1800 UTC 23 August 2019
Temperature: 26.0°C (79°F)
Dewpoint: 23.0°C (73°F) [RH = 84%]
Pressure (altimeter): 29.70 inches Hg (1006.0 mb)
Winds: from the WNW (300 degrees) at 7 MPH (6 knots; 3.1 m/s)
Visibility: 6 or more miles (10+ km)
Ceiling: 15000 feet AGL
Clouds: few clouds at 2500 feet AGL
broken clouds at 15000 feet AGL
Weather: -SHRA  (light rain showers)

METAR text: RJTT 231730Z 32006KT 9999 -SHRA FEW025 BKN120 BKN150 26/23 Q1006 NOSIG RMK 1CU025 5AC120 7AC150 A2972
Conditions at: RJTT (TOKYO INTL AIRPO, JP) observed 1730 UTC 23 August 2019
Temperature: 26.0°C (79°F)
Dewpoint: 23.0°C (73°F) [RH = 84%]
Pressure (altimeter): 29.70 inches Hg (1006.0 mb)
Winds: from the NW (320 degrees) at 7 MPH (6 knots; 3.1 m/s)
Visibility: 6 or more miles (10+ km)
Ceiling: 12000 feet AGL
Clouds: few clouds at 2500 feet AGL
broken clouds at 12000 feet AGL
broken clouds at 15000 feet AGL
Weather: -SHRA  (light rain showers)

METAR text: RJTT 231700Z 29007KT 9999 -SHRA FEW025 BKN120 27/23 Q1006 NOSIG RMK 1CU025 7AC120 A2972
Conditions at: RJTT (TOKYO INTL AIRPO, JP) observed 1700 UTC 23 August 2019
Temperature: 27.0°C (81°F)
Dewpoint: 23.0°C (73°F) [RH = 79%]
Pressure (altimeter): 29.70 inches Hg (1006.0 mb)
Winds: from the WNW (290 degrees) at 8 MPH (7 knots; 3.6 m/s)
Visibility: 6 or more miles (10+ km)
Ceiling: 12000 feet AGL
Clouds: few clouds at 2500 feet AGL
broken clouds at 12000 feet AGL
Weather: -SHRA  (light rain showers)

METAR text: RJTT 231630Z 27004KT 9999 FEW025 BKN130 26/24 Q1006 BECMG 35010KT RMK 1CU025 7AC130 A2972
Conditions at: RJTT (TOKYO INTL AIRPO, JP) observed 1630 UTC 23 August 2019
Temperature: 26.0°C (79°F)
Dewpoint: 24.0°C (75°F) [RH = 89%]
Pressure (altimeter): 29.70 inches Hg (1006.0 mb)
Winds: from the W (270 degrees) at 5 MPH (4 knots; 2.1 m/s)
Visibility: 6 or more miles (10+ km)
Ceiling: 13000 feet AGL
Clouds: few clouds at 2500 feet AGL
broken clouds at 13000 feet AGL
Weather: no significant weather observed at this time

METAR text: RJTT 231600Z 19008KT 9999 FEW025 BKN130 27/24 Q1006 NOSIG RMK 1CU025 7AC130 A2971
Conditions at: RJTT (TOKYO INTL AIRPO, JP) observed 1600 UTC 23 August 2019
Temperature: 27.0°C (81°F)
Dewpoint: 24.0°C (75°F) [RH = 84%]
Pressure (altimeter): 29.70 inches Hg (1006.0 mb)
Winds: from the S (190 degrees) at 9 MPH (8 knots; 4.1 m/s)
Visibility: 6 or more miles (10+ km)
Ceiling: 13000 feet AGL
Clouds: few clouds at 2500 feet AGL
broken clouds at 13000 feet AGL
Weather: no significant weather observed at this time

METAR text: RJTT 231530Z 20006KT 9999 FEW025 BKN130 27/23 Q1006 NOSIG RMK 1CU025 7AC130 A2971
Conditions at: RJTT (TOKYO INTL AIRPO, JP) observed 1530 UTC 23 August 2019
Temperature: 27.0°C (81°F)
Dewpoint: 23.0°C (73°F) [RH = 79%]
Pressure (altimeter): 29.70 inches Hg (1006.0 mb)
Winds: from the SSW (200 degrees) at 7 MPH (6 knots; 3.1 m/s)
Visibility: 6 or more miles (10+ km)
Ceiling: 13000 feet AGL
Clouds: few clouds at 2500 feet AGL
broken clouds at 13000 feet AGL
Weather: no significant weather observed at this time

METAR text: RJTT 231500Z 21006KT 190V260 9999 FEW025 BKN150 BKN210 27/23 Q1006 BECMG 33005KT RMK 1CU025 5AC150 6AC210 A2971
Conditions at: RJTT (TOKYO INTL AIRPO, JP) observed 1500 UTC 23 August 2019
Temperature: 27.0°C (81°F)
Dewpoint: 23.0°C (73°F) [RH = 79%]
Pressure (altimeter): 29.70 inches Hg (1006.0 mb)
Winds: from the SSW (210 degrees) at 7 MPH (6 knots; 3.1 m/s)
Visibility: 6 or more miles (10+ km)
Ceiling: 15000 feet AGL
Clouds: few clouds at 2500 feet AGL
broken clouds at 15000 feet AGL
broken clouds at 21000 feet AGL
Weather: no significant weather observed at this time

METAR text: RJTT 231430Z 20006KT 150V290 9999 FEW030 BKN150 27/24 Q1006 BECMG 33005KT RMK 1CU030 7AC150 A2971
Conditions at: RJTT (TOKYO INTL AIRPO, JP) observed 1430 UTC 23 August 2019
Temperature: 27.0°C (81°F)
Dewpoint: 24.0°C (75°F) [RH = 84%]
Pressure (altimeter): 29.70 inches Hg (1006.0 mb)
Winds: from the SSW (200 degrees) at 7 MPH (6 knots; 3.1 m/s)
Visibility: 6 or more miles (10+ km)
Ceiling: 15000 feet AGL
Clouds: few clouds at 3000 feet AGL
broken clouds at 15000 feet AGL
Weather: no significant weather observed at this time

METAR text: RJTT 231400Z 21003KT 150V250 9999 FEW030 BKN150 27/24 Q1006 BECMG 33005KT RMK 1CU030 7AC150 A2971
Conditions at: RJTT (TOKYO INTL AIRPO, JP) observed 1400 UTC 23 August 2019
Temperature: 27.0°C (81°F)
Dewpoint: 24.0°C (75°F) [RH = 84%]
Pressure (altimeter): 29.70 inches Hg (1006.0 mb)
Winds: from the SSW (210 degrees) at 3 MPH (3 knots; 1.5 m/s)
Visibility: 6 or more miles (10+ km)
Ceiling: 15000 feet AGL
Clouds: few clouds at 3000 feet AGL
broken clouds at 15000 feet AGL
Weather: no significant weather observed at this time

METAR text: RJTT 231330Z 28003KT 250V320 9999 FEW030 BKN130 BKN150 27/24 Q1006 NOSIG RMK 1CU030 5AC130 7AC150 A2971
Conditions at: RJTT (TOKYO INTL AIRPO, JP) observed 1330 UTC 23 August 2019
Temperature: 27.0°C (81°F)
Dewpoint: 24.0°C (75°F) [RH = 84%]
Pressure (altimeter): 29.70 inches Hg (1006.0 mb)
Winds: from the W (280 degrees) at 3 MPH (3 knots; 1.5 m/s)
Visibility: 6 or more miles (10+ km)
Ceiling: 13000 feet AGL
Clouds: few clouds at 3000 feet AGL
broken clouds at 13000 feet AGL
broken clouds at 15000 feet AGL
Weather: no significant weather observed at this time

METAR text: RJTT 231300Z 24005KT 190V300 9999 FEW030 BKN130 27/24 Q1006 NOSIG RMK 1CU030 7AC130 A2971
Conditions at: RJTT (TOKYO INTL AIRPO, JP) observed 1300 UTC 23 August 2019
Temperature: 27.0°C (81°F)
Dewpoint: 24.0°C (75°F) [RH = 84%]
Pressure (altimeter): 29.70 inches Hg (1006.0 mb)
Winds: from the WSW (240 degrees) at 6 MPH (5 knots; 2.6 m/s)
Visibility: 6 or more miles (10+ km)
Ceiling: 13000 feet AGL
Clouds: few clouds at 3000 feet AGL
broken clouds at 13000 feet AGL
Weather: no significant weather observed at this time

METAR text: RJTT 231230Z VRB04KT 9999 FEW020 BKN140 27/24 Q1006 NOSIG
Conditions at: RJTT (TOKYO INTL AIRPO, JP) observed 1230 UTC 23 August 2019
Temperature: 27.0°C (81°F)
Dewpoint: 24.0°C (75°F) [RH = 84%]
Pressure (altimeter): 29.70 inches Hg (1006.0 mb)
Winds: variable direction winds at 5 MPH (4 knots; 2.1 m/s)
Visibility: 6 or more miles (10+ km)
Ceiling: 14000 feet AGL
Clouds: few clouds at 2000 feet AGL
broken clouds at 14000 feet AGL
Weather: no significant weather observed at this time

METAR text: RJTT 231200Z 21006KT 9999 FEW015 BKN140 BKN/// 27/25 Q1005 NOSIG RMK 1CU015 6AC140 A2970
Conditions at: RJTT (TOKYO INTL AIRPO, JP) observed 1200 UTC 23 August 2019
Temperature: 27.0°C (81°F)
Dewpoint: 25.0°C (77°F) [RH = 89%]
Pressure (altimeter): 29.68 inches Hg (1005.0 mb)
Winds: from the SSW (210 degrees) at 7 MPH (6 knots; 3.1 m/s)
Visibility: 6 or more miles (10+ km)
Ceiling: 14000 feet AGL
Clouds: few clouds at 1500 feet AGL
broken clouds at 14000 feet AGL
Weather: no significant weather observed at this time

METAR text: RJTT 231130Z 20010KT 9999 FEW015 BKN140 BKN/// 27/24 Q1005 NOSIG RMK 1CU015 5AC140 A2970
Conditions at: RJTT (TOKYO INTL AIRPO, JP) observed 1130 UTC 23 August 2019
Temperature: 27.0°C (81°F)
Dewpoint: 24.0°C (75°F) [RH = 84%]
Pressure (altimeter): 29.68 inches Hg (1005.0 mb)
Winds: from the SSW (200 degrees) at 12 MPH (10 knots; 5.1 m/s)
Visibility: 6 or more miles (10+ km)
Ceiling: 14000 feet AGL
Clouds: few clouds at 1500 feet AGL
broken clouds at 14000 feet AGL
Weather: no significant weather observed at this time

METAR text: RJTT 231100Z 19010KT 9999 FEW015 BKN140 27/24 Q1005 NOSIG RMK 1CU015 7AC140 A2969
Conditions at: RJTT (TOKYO INTL AIRPO, JP) observed 1100 UTC 23 August 2019
Temperature: 27.0°C (81°F)
Dewpoint: 24.0°C (75°F) [RH = 84%]
Pressure (altimeter): 29.68 inches Hg (1005.0 mb)
Winds: from the S (190 degrees) at 12 MPH (10 knots; 5.1 m/s)
Visibility: 6 or more miles (10+ km)
Ceiling: 14000 feet AGL
Clouds: few clouds at 1500 feet AGL
broken clouds at 14000 feet AGL
Weather: no significant weather observed at this time

METAR text: RJTT 231030Z 19009KT 9999 FEW015 BKN150 27/24 Q1005 NOSIG RMK 1CU015 7AC150 A2969
Conditions at: RJTT (TOKYO INTL AIRPO, JP) observed 1030 UTC 23 August 2019
Temperature: 27.0°C (81°F)
Dewpoint: 24.0°C (75°F) [RH = 84%]
Pressure (altimeter): 29.68 inches Hg (1005.0 mb)
Winds: from the S (190 degrees) at 10 MPH (9 knots; 4.6 m/s)
Visibility: 6 or more miles (10+ km)
Ceiling: 15000 feet AGL
Clouds: few clouds at 1500 feet AGL
broken clouds at 15000 feet AGL
Weather: no significant weather observed at this time

METAR text: RJTT 231000Z 20007KT 9999 FEW020 BKN150 27/24 Q1005 NOSIG RMK 1CU020 7AC150 A2968
Conditions at: RJTT (TOKYO INTL AIRPO, JP) observed 1000 UTC 23 August 2019
Temperature: 27.0°C (81°F)
Dewpoint: 24.0°C (75°F) [RH = 84%]
Pressure (altimeter): 29.68 inches Hg (1005.0 mb)
Winds: from the SSW (200 degrees) at 8 MPH (7 knots; 3.6 m/s)
Visibility: 6 or more miles (10+ km)
Ceiling: 15000 feet AGL
Clouds: few clouds at 2000 feet AGL
broken clouds at 15000 feet AGL
Weather: no significant weather observed at this time

METAR text: RJTT 230930Z 20011KT 9999 FEW020 BKN170 BKN/// 27/24 Q1005 NOSIG RMK 1CU020 6AC170 A2969
Conditions at: RJTT (TOKYO INTL AIRPO, JP) observed 0930 UTC 23 August 2019
Temperature: 27.0°C (81°F)
Dewpoint: 24.0°C (75°F) [RH = 84%]
Pressure (altimeter): 29.68 inches Hg (1005.0 mb)
Winds: from the SSW (200 degrees) at 13 MPH (11 knots; 5.7 m/s)
Visibility: 6 or more miles (10+ km)
Ceiling: 17000 feet AGL
Clouds: few clouds at 2000 feet AGL
broken clouds at 17000 feet AGL
Weather: no significant weather observed at this time

METAR text: RJTT 230900Z 20012KT 9999 -SHRA FEW020 BKN150 26/22 Q1004 NOSIG RMK 1CU020 7AC150 A2967
Conditions at: RJTT (TOKYO INTL AIRPO, JP) observed 0900 UTC 23 August 2019
Temperature: 26.0°C (79°F)
Dewpoint: 22.0°C (72°F) [RH = 79%]
Pressure (altimeter): 29.65 inches Hg (1004.0 mb)
Winds: from the SSW (200 degrees) at 14 MPH (12 knots; 6.2 m/s)
Visibility: 6 or more miles (10+ km)
Ceiling: 15000 feet AGL
Clouds: few clouds at 2000 feet AGL
broken clouds at 15000 feet AGL
Weather: -SHRA  (light rain showers)

METAR text: RJTT 230830Z 20013KT 9999 -SHRA FEW020 BKN150 26/24 Q1004 NOSIG RMK 1CU020 7AC150 A2967
Conditions at: RJTT (TOKYO INTL AIRPO, JP) observed 0830 UTC 23 August 2019
Temperature: 26.0°C (79°F)
Dewpoint: 24.0°C (75°F) [RH = 89%]
Pressure (altimeter): 29.65 inches Hg (1004.0 mb)
Winds: from the SSW (200 degrees) at 15 MPH (13 knots; 6.7 m/s)
Visibility: 6 or more miles (10+ km)
Ceiling: 15000 feet AGL
Clouds: few clouds at 2000 feet AGL
broken clouds at 15000 feet AGL
Weather: -SHRA  (light rain showers)

METAR text: RJTT 230800Z 19012KT 9999 -SHRA FEW015 BKN150 26/24 Q1004 NOSIG RMK 1CU015 7AC150 A2966
Conditions at: RJTT (TOKYO INTL AIRPO, JP) observed 0800 UTC 23 August 2019
Temperature: 26.0°C (79°F)
Dewpoint: 24.0°C (75°F) [RH = 89%]
Pressure (altimeter): 29.65 inches Hg (1004.0 mb)
Winds: from the S (190 degrees) at 14 MPH (12 knots; 6.2 m/s)
Visibility: 6 or more miles (10+ km)
Ceiling: 15000 feet AGL
Clouds: few clouds at 1500 feet AGL
broken clouds at 15000 feet AGL
Weather: -SHRA  (light rain showers)

METAR text: RJTT 230730Z 18016KT 9999 -SHRA FEW010 FEW030CB BKN150 25/24 Q1004 TEMPO TL0800 -TSRA
Conditions at: RJTT (TOKYO INTL AIRPO, JP) observed 0730 UTC 23 August 2019
Temperature: 25.0°C (77°F)
Dewpoint: 24.0°C (75°F) [RH = 94%]
Pressure (altimeter): 29.65 inches Hg (1004.0 mb)
Winds: from the S (180 degrees) at 18 MPH (16 knots; 8.2 m/s)
Visibility: 6 or more miles (10+ km)
Ceiling: 15000 feet AGL
Clouds: few clouds at 1000 feet AGL
few clouds at 3000 feet AGL
broken clouds at 15000 feet AGL
Weather: -SHRA  (light rain showers)

METAR text: RJTT 230700Z 20014KT 9999 -SHRA FEW010 SCT020 FEW030CB BKN100 28/26 Q1004 TEMPO TL0800 -TSRA
Conditions at: RJTT (TOKYO INTL AIRPO, JP) observed 0700 UTC 23 August 2019
Temperature: 28.0°C (82°F)
Dewpoint: 26.0°C (79°F) [RH = 89%]
Pressure (altimeter): 29.65 inches Hg (1004.0 mb)
Winds: from the SSW (200 degrees) at 16 MPH (14 knots; 7.2 m/s)
Visibility: 6 or more miles (10+ km)
Ceiling: 10000 feet AGL
Clouds: few clouds at 1000 feet AGL
scattered clouds at 2000 feet AGL
few clouds at 3000 feet AGL
broken clouds at 10000 feet AGL
Weather: -SHRA  (light rain showers)

METAR text: RJTT 230630Z 23011KT 170V250 9999 -SHRA FEW015 SCT025 FEW030CB BKN100 29/25 Q1004 TEMPO -TSRA RMK 1CU015 3CU025 1CB030 7AC100 A2967 CB 30KM SW MOV E
Conditions at: RJTT (TOKYO INTL AIRPO, JP) observed 0630 UTC 23 August 2019
Temperature: 29.0°C (84°F)
Dewpoint: 25.0°C (77°F) [RH = 79%]
Pressure (altimeter): 29.65 inches Hg (1004.0 mb)
Winds: from the SW (230 degrees) at 13 MPH (11 knots; 5.7 m/s)
Visibility: 6 or more miles (10+ km)
Ceiling: 10000 feet AGL
Clouds: few clouds at 1500 feet AGL
scattered clouds at 2500 feet AGL
few clouds at 3000 feet AGL
broken clouds at 10000 feet AGL
Weather: -SHRA  (light rain showers)

METAR text: RJTT 230600Z 21009KT 170V250 9999 -SHRA FEW015 SCT025 BKN060 30/25 Q1004 TEMPO SHRA RMK 1CU015 3CU025 7SC060 A2966
Conditions at: RJTT (TOKYO INTL AIRPO, JP) observed 0600 UTC 23 August 2019
Temperature: 30.0°C (86°F)
Dewpoint: 25.0°C (77°F) [RH = 75%]
Pressure (altimeter): 29.65 inches Hg (1004.0 mb)
Winds: from the SSW (210 degrees) at 10 MPH (9 knots; 4.6 m/s)
Visibility: 6 or more miles (10+ km)
Ceiling: 6000 feet AGL
Clouds: few clouds at 1500 feet AGL
scattered clouds at 2500 feet AGL
broken clouds at 6000 feet AGL
Weather: -SHRA  (light rain showers)

METAR text: RJTT 230530Z 23008KT 9999 -SHRA FEW015 SCT025 BKN080 30/25 Q1004 NOSIG RMK 1CU015 3CU025 7AC080 A2966
Conditions at: RJTT (TOKYO INTL AIRPO, JP) observed 0530 UTC 23 August 2019
Temperature: 30.0°C (86°F)
Dewpoint: 25.0°C (77°F) [RH = 75%]
Pressure (altimeter): 29.65 inches Hg (1004.0 mb)
Winds: from the SW (230 degrees) at 9 MPH (8 knots; 4.1 m/s)
Visibility: 6 or more miles (10+ km)
Ceiling: 8000 feet AGL
Clouds: few clouds at 1500 feet AGL
scattered clouds at 2500 feet AGL
broken clouds at 8000 feet AGL
Weather: -SHRA  (light rain showers)

METAR text: RJTT 230500Z 19012KT 9999 -SHRA FEW015 SCT025 BKN100 30/25 Q1004 NOSIG RMK 1CU015 3CU025 7AC100 A2965
Conditions at: RJTT (TOKYO INTL AIRPO, JP) observed 0500 UTC 23 August 2019
Temperature: 30.0°C (86°F)
Dewpoint: 25.0°C (77°F) [RH = 75%]
Pressure (altimeter): 29.65 inches Hg (1004.0 mb)
Winds: from the S (190 degrees) at 14 MPH (12 knots; 6.2 m/s)
Visibility: 6 or more miles (10+ km)
Ceiling: 10000 feet AGL
Clouds: few clouds at 1500 feet AGL
scattered clouds at 2500 feet AGL
broken clouds at 10000 feet AGL
Weather: -SHRA  (light rain showers)

METAR text: RJTT 230430Z 21010KT 9999 -SHRA FEW015 SCT025 BKN100 30/25 Q1004 NOSIG RMK 1CU015 3CU025 7AC100 A2965
Conditions at: RJTT (TOKYO INTL AIRPO, JP) observed 0430 UTC 23 August 2019
Temperature: 30.0°C (86°F)
Dewpoint: 25.0°C (77°F) [RH = 75%]
Pressure (altimeter): 29.65 inches Hg (1004.0 mb)
Winds: from the SSW (210 degrees) at 12 MPH (10 knots; 5.1 m/s)
Visibility: 6 or more miles (10+ km)
Ceiling: 10000 feet AGL
Clouds: few clouds at 1500 feet AGL
scattered clouds at 2500 feet AGL
broken clouds at 10000 feet AGL
Weather: -SHRA  (light rain showers)

METAR text: RJTT 230400Z 19014KT 9999 -SHRA FEW015 SCT025 BKN110 31/25 Q1004 NOSIG RMK 1CU015 4CU025 7AC110 A2965
Conditions at: RJTT (TOKYO INTL AIRPO, JP) observed 0400 UTC 23 August 2019
Temperature: 31.0°C (88°F)
Dewpoint: 25.0°C (77°F) [RH = 71%]
Pressure (altimeter): 29.65 inches Hg (1004.0 mb)
Winds: from the S (190 degrees) at 16 MPH (14 knots; 7.2 m/s)
Visibility: 6 or more miles (10+ km)
Ceiling: 11000 feet AGL
Clouds: few clouds at 1500 feet AGL
scattered clouds at 2500 feet AGL
broken clouds at 11000 feet AGL
Weather: -SHRA  (light rain showers)

METAR text: RJTT 230330Z 23014KT 9999 -SHRA FEW015 BKN025 BKN110 30/24 Q1004 NOSIG RMK 1CU015 5CU025 7AC110 A2966
Conditions at: RJTT (TOKYO INTL AIRPO, JP) observed 0330 UTC 23 August 2019
Temperature: 30.0°C (86°F)
Dewpoint: 24.0°C (75°F) [RH = 70%]
Pressure (altimeter): 29.65 inches Hg (1004.0 mb)
Winds: from the SW (230 degrees) at 16 MPH (14 knots; 7.2 m/s)
Visibility: 6 or more miles (10+ km)
Ceiling: 2500 feet AGL
Clouds: few clouds at 1500 feet AGL
broken clouds at 2500 feet AGL
broken clouds at 11000 feet AGL
Weather: -SHRA  (light rain showers)

METAR text: RJTT 230300Z 23015KT 9999 VCSH FEW015 BKN025 29/25 Q1004 NOSIG RMK 1CU015 7CU025 A2967
Conditions at: RJTT (TOKYO INTL AIRPO, JP) observed 0300 UTC 23 August 2019
Temperature: 29.0°C (84°F)
Dewpoint: 25.0°C (77°F) [RH = 79%]
Pressure (altimeter): 29.65 inches Hg (1004.0 mb)
Winds: from the SW (230 degrees) at 17 MPH (15 knots; 7.7 m/s)
Visibility: 6 or more miles (10+ km)
Ceiling: 2500 feet AGL
Clouds: few clouds at 1500 feet AGL
broken clouds at 2500 feet AGL
Weather: VCSH  (showers in vicinity)

METAR text: RJTT 230230Z 22014KT 200V260 9999 -SHRA FEW010 SCT025 BKN120 29/25 Q1004 NOSIG RMK 1CU010 4CU025 7AC120 A2967 MOD TURB OBS AT 0212Z AROUND RUNSO BTN 15000FT AND 13000FT BY B763
Conditions at: RJTT (TOKYO INTL AIRPO, JP) observed 0230 UTC 23 August 2019
Temperature: 29.0°C (84°F)
Dewpoint: 25.0°C (77°F) [RH = 79%]
Pressure (altimeter): 29.65 inches Hg (1004.0 mb)
Winds: from the SW (220 degrees) at 16 MPH (14 knots; 7.2 m/s)
Visibility: 6 or more miles (10+ km)
Ceiling: 12000 feet AGL
Clouds: few clouds at 1000 feet AGL
scattered clouds at 2500 feet AGL
broken clouds at 12000 feet AGL
Weather: -SHRA  (light rain showers)

METAR text: RJTT 230200Z 23016KT 9999 -SHRA FEW010 SCT020 BKN150 29/25 Q1005 NOSIG RMK 1CU010 4CU020 7AC150 A2968
Conditions at: RJTT (TOKYO INTL AIRPO, JP) observed 0200 UTC 23 August 2019
Temperature: 29.0°C (84°F)
Dewpoint: 25.0°C (77°F) [RH = 79%]
Pressure (altimeter): 29.68 inches Hg (1005.0 mb)
Winds: from the SW (230 degrees) at 18 MPH (16 knots; 8.2 m/s)
Visibility: 6 or more miles (10+ km)
Ceiling: 15000 feet AGL
Clouds: few clouds at 1000 feet AGL
scattered clouds at 2000 feet AGL
broken clouds at 15000 feet AGL
Weather: -SHRA  (light rain showers)

Forecast for: RJTT (TOKYO INTL AIRPO, JP)
Text: TAF RJTT 241108Z 2412/2518 20008KT 9999 FEW020
Forecast period: 1200 to 1400 UTC 24 August 2019
Forecast type: FROM: standard forecast or significant change
Winds: from the SSW (200 degrees) at 9 MPH (8 knots; 4.1 m/s)
Visibility: 6 or more miles 10+ km)
Ceiling: at least 12,000 feet AGL
Clouds: few clouds at 2000 feet AGL
Weather: no significant weather forecast for this period
Text: BECMG 2414/2416 03006KT
Forecast period: 1400 UTC 24 August 2019 to 0000 UTC 25 August 2019
Forecast type: BECOMING: Conditions expected to become as follows by 1600 UTC 24 August 2019
Winds: from the NNE (30 degrees) at 7 MPH (6 knots; 3.1 m/s)
Visibility: 6 or more miles 10+ km)
Ceiling: at least 12,000 feet AGL
Clouds: few clouds at 2000 feet AGL
Weather: no significant weather forecast for this period
Text: TEMPO 2417/2420 4000 -SHRA BR FEW005 BKN008
Forecast period: 1700 to 2000 UTC 24 August 2019
Forecast type: TEMPORARY: The following changes expected for less than half the time period
Visibility: 2.49 miles (4.01 km)
Ceiling: 800 feet AGL
Clouds: few clouds at 500 feet AGL
broken clouds at 800 feet AGL
Weather: -SHRA BR  (light rain showers, mist)
Text: BECMG 2500/2503 12008KT
Forecast period: 0000 to 0300 UTC 25 August 2019
Forecast type: BECOMING: Conditions expected to become as follows by 0300 UTC 25 August 2019
Winds: from the ESE (120 degrees) at 9 MPH (8 knots; 4.1 m/s)
Visibility: 6 or more miles 10+ km)
Ceiling: at least 12,000 feet AGL
Clouds: few clouds at 2000 feet AGL
Weather: no significant weather forecast for this period
Text: BECMG 2503/2506 18014KT
Forecast period: 0300 to 1500 UTC 25 August 2019
Forecast type: BECOMING: Conditions expected to become as follows by 0600 UTC 25 August 2019
Winds: from the S (180 degrees) at 16 MPH (14 knots; 7.2 m/s)
Visibility: 6 or more miles 10+ km)
Ceiling: at least 12,000 feet AGL
Clouds: few clouds at 2000 feet AGL
Weather: no significant weather forecast for this period
Text: BECMG 2515/2518 08008KT
Forecast period: 1500 to 1800 UTC 25 August 2019
Forecast type: BECOMING: Conditions expected to become as follows by 1800 UTC 25 August 2019
Winds: from the E (80 degrees) at 9 MPH (8 knots; 4.1 m/s)
Visibility: 6 or more miles 10+ km)
Ceiling: at least 12,000 feet AGL
Clouds: few clouds at 2000 feet AGL
Weather: no significant weather forecast for this period